EW0079 El Bonillo ES current weather conditions

sailwx.info

Wind from 203 at 5 knots gusting 13

Air temperature 12.8° C
Dewpoint 12.2° C

Last reported at 2020-Sep-19 08:45 UTC.
Time now 2020-Sep-19 09:23 UTC

Location: N 38°57' W 002°33'.
View on Google Maps.

See reports from other nearby stations

  
Tides and Currents Weather Stations Pressure Air Temp Water Temp Dewpoint Dewpoint Depression Visibility Wind Speed Wind Dir Waves Ship Positions
date/time (UTC)wind fromknots sea level pressurealtimeterstation pressurevisibilityair tempwater tempwave heightnotes
2020-Sep-19 09:00 206 6 gusting 13 13.3
2020-Sep-19 08:45 203 5 gusting 13 12.8
2020-Sep-19 08:30 206 5 gusting 9 13.3
2020-Sep-19 08:15 205 5 gusting 10 12.8
2020-Sep-19 08:00 205 6 gusting 12 12.8
2020-Sep-19 07:45 206 5 gusting 10 12.8
2020-Sep-19 07:30 207 5 gusting 10 12.8
2020-Sep-19 07:15 207 4 gusting 9 12.8
2020-Sep-19 07:00 204 5 gusting 10 12.8
2020-Sep-19 06:45 207 5 gusting 10 12.2
2020-Sep-19 06:30 212 4 gusting 10 12.2
2020-Sep-19 06:15 210 6 gusting 13 12.2
2020-Sep-19 06:00 204 6 gusting 12 12.8
2020-Sep-19 05:45 202 7 gusting 13 12.8
2020-Sep-19 05:30 206 6 gusting 13 12.8
2020-Sep-19 05:15 205 6 gusting 11 13.3
2020-Sep-19 05:00 205 6 gusting 12 13.3
2020-Sep-19 04:45 210 6 gusting 11 13.3
2020-Sep-19 04:30 204 6 gusting 10 13.3
2020-Sep-19 04:15 206 5 gusting 10 12.8
2020-Sep-19 04:00 209 5 gusting 10 12.8
2020-Sep-19 03:45 209 5 gusting 10 13.3
2020-Sep-19 03:30 210 3 gusting 7 12.8
2020-Sep-19 03:15 209 4 gusting 6 13.3
2020-Sep-19 03:00 207 4 gusting 10 13.3
2020-Sep-19 02:45 200 2 gusting 8 13.3
2020-Sep-19 02:30 212 0 gusting 4 13.3
2020-Sep-19 02:15 203 1 gusting 3 13.3
2020-Sep-19 02:00 189 0 gusting 4 13.3
2020-Sep-19 01:45 170 2 gusting 6 13.3
2020-Sep-19 01:30 170 3 gusting 9 13.3
2020-Sep-19 01:15 191 3 gusting 7 13.3
2020-Sep-19 01:00 179 3 gusting 6 13.3
2020-Sep-19 00:45 184 5 gusting 9 13.9
2020-Sep-19 00:30 173 6 gusting 13 13.9
2020-Sep-19 00:15 176 4 gusting 10 14.4
2020-Sep-19 00:00 176 2 gusting 8 14.4
2020-Sep-18 23:45 185 4 gusting 6 14.4
2020-Sep-18 23:30 148 2 gusting 11 14.4
2020-Sep-18 23:15 156 1 gusting 5 14.4
2020-Sep-18 23:00 129 2 gusting 6 14.4
2020-Sep-18 22:45 102 1 gusting 3 14.4
2020-Sep-18 22:30 105 2 gusting 6 15.0
2020-Sep-18 22:15 124 3 gusting 5 15.0
2020-Sep-18 22:00 113 4 gusting 9 15.0
2020-Sep-18 21:45 119 3 gusting 7 15.0
2020-Sep-18 21:30 095 3 gusting 6 14.4
2020-Sep-18 21:15 085 4 gusting 6 14.4
2020-Sep-18 21:00 080 3 gusting 6 13.9
2020-Sep-18 20:45 081 1 gusting 6 13.9
2020-Sep-18 20:30 083 2 gusting 6 13.9
2020-Sep-18 20:15 083 3 gusting 6 13.3
2020-Sep-18 20:00 074 2 gusting 5 13.3
2020-Sep-18 19:45 076 1 gusting 3 13.3
2020-Sep-18 19:30 090 2 gusting 6 12.8
2020-Sep-18 19:15 084 2 gusting 5 12.8
2020-Sep-18 19:00 083 12.8
2020-Sep-18 18:45 12.8
2020-Sep-18 18:30 304 1 gusting 3 12.8
2020-Sep-18 18:15 292 1 gusting 5 13.3
2020-Sep-18 18:00 282 1 gusting 4 13.3
2020-Sep-18 17:45 284 0 gusting 3 13.3
2020-Sep-18 17:30 256 0 gusting 5 13.3
2020-Sep-18 17:15 269 2 gusting 6 13.3
2020-Sep-18 17:00 262 4 gusting 9 13.3
2020-Sep-18 16:45 262 6 gusting 12 13.3
2020-Sep-18 16:30 253 12 gusting 19 13.9
2020-Sep-18 16:15 250 8 gusting 19 14.4
2020-Sep-18 16:00 238 6 gusting 12 14.4
2020-Sep-18 15:45 231 1 gusting 7 14.4
2020-Sep-18 15:30 109 3 gusting 8 14.4
2020-Sep-18 15:15 040 1 gusting 3 15.6
2020-Sep-18 15:00 324 0 gusting 5 17.2
2020-Sep-18 14:45 293 1 gusting 4 18.3
2020-Sep-18 14:30 061 0 gusting 4 20.0
2020-Sep-18 14:00 027 3 gusting 4 20.0
2020-Sep-18 13:45 021 3 gusting 7 20.0
2020-Sep-18 13:30 352 5 gusting 8 19.4
2020-Sep-18 13:15 333 6 gusting 11 18.3
2020-Sep-18 13:00 322 6 gusting 13 18.3
2020-Sep-18 12:45 304 5 gusting 11 18.3
2020-Sep-18 12:30 288 5 gusting 11 17.8
2020-Sep-18 12:15 276 6 gusting 14 18.3
2020-Sep-18 12:00 241 2 gusting 22 20.0
2020-Sep-18 11:45 235 1 gusting 6 20.0
2020-Sep-18 11:30 243 1 gusting 6 20.0
2020-Sep-18 11:15 233 0 gusting 6 20.0
2020-Sep-18 11:00 237 20.6
2020-Sep-18 10:45 074 0 gusting 2 19.4
2020-Sep-18 10:30 076 0 gusting 3 18.3
2020-Sep-18 10:15 090 17.8
2020-Sep-18 10:00 17.8
2020-Sep-18 09:45 16.7
2020-Sep-18 09:30 129 0 gusting 2 16.7
2020-Sep-18 09:15 104 4 gusting 6 16.1
2020-Sep-18 09:00 083 6 gusting 12 16.1
2020-Sep-18 08:45 089 6 gusting 11 16.1
2020-Sep-18 08:30 087 4 gusting 8 16.1
2020-Sep-18 08:15 094 3 gusting 8 16.1
2020-Sep-18 08:00 115 4 gusting 8 16.1
2020-Sep-18 07:45 114 4 gusting 8 16.1
2020-Sep-18 07:30 131 6 gusting 8 16.1
2020-Sep-18 07:15 134 6 gusting 9 15.6
2020-Sep-18 07:00 134 6 gusting 9 15.6
2020-Sep-18 06:45 135 5 gusting 9 15.6
2020-Sep-18 06:30 137 6 gusting 10 15.6
2020-Sep-18 06:15 134 8 gusting 13 15.6
2020-Sep-18 06:00 133 8 gusting 13 15.6
2020-Sep-18 05:45 136 4 gusting 9 15.6
2020-Sep-18 05:30 172 4 gusting 6 15.0
2020-Sep-18 05:15 137 9 gusting 19 15.6
2020-Sep-18 05:00 132 7 gusting 15 15.6
2020-Sep-18 04:45 134 10 gusting 14 15.0
2020-Sep-18 04:30 136 9 gusting 19 15.6
2020-Sep-18 04:15 153 6 gusting 13 16.1
2020-Sep-18 04:00 151 5 gusting 13 16.1
2020-Sep-18 03:45 133 10 gusting 13 16.7
2020-Sep-18 03:30 137 8 gusting 17 16.7
2020-Sep-18 03:15 143 10 gusting 22 16.7
2020-Sep-18 03:00 141 8 gusting 21 16.7
2020-Sep-18 02:45 158 8 gusting 17 16.7
2020-Sep-18 02:30 147 10 gusting 17 16.7
2020-Sep-18 02:15 133 11 gusting 17 17.2
2020-Sep-18 02:00 136 9 gusting 18 17.2
2020-Sep-18 01:45 136 7 gusting 15 17.2
2020-Sep-18 01:30 135 7 gusting 13 17.2
2020-Sep-18 01:15 134 6 gusting 10 17.2
2020-Sep-18 01:00 135 6 gusting 9 16.7
2020-Sep-18 00:45 134 7 gusting 11 16.7
2020-Sep-18 00:30 134 6 gusting 13 16.7
2020-Sep-18 00:15 148 5 gusting 12 16.7
2020-Sep-18 00:00 164 6 gusting 13 17.2
2020-Sep-17 23:45 157 6 gusting 10 17.2
2020-Sep-17 23:30 163 6 gusting 12 17.8
2020-Sep-17 23:15 166 3 gusting 10 17.8
2020-Sep-17 23:00 139 4 gusting 6 17.8
2020-Sep-17 22:45 134 3 gusting 7 18.3
2020-Sep-17 22:30 123 5 gusting 7 18.3
2020-Sep-17 22:15 117 4 gusting 9 18.3
2020-Sep-17 22:00 123 3 gusting 7 18.3
2020-Sep-17 21:45 112 6 gusting 9 18.3
2020-Sep-17 21:30 119 5 gusting 11 17.2
2020-Sep-17 21:15 117 5 gusting 10 17.2
2020-Sep-17 21:00 102 4 gusting 8 16.7
2020-Sep-17 20:45 095 6 gusting 10 16.7
2020-Sep-17 20:30 089 6 gusting 11 16.7
2020-Sep-17 20:15 090 5 gusting 9 16.7
2020-Sep-17 20:00 087 5 gusting 8 16.7
2020-Sep-17 19:45 087 6 gusting 9 16.7
2020-Sep-17 19:30 090 4 gusting 8 16.7
2020-Sep-17 19:15 108 3 gusting 8 16.7
2020-Sep-17 19:00 118 3 gusting 7 16.1
2020-Sep-17 18:45 103 10 gusting 15 16.1
2020-Sep-17 18:30 133 10 gusting 21 17.8
2020-Sep-17 18:15 098 5 gusting 23 18.3
2020-Sep-17 18:00 128 1 gusting 3 21.1
2020-Sep-17 17:45 081 1 gusting 4 21.1
2020-Sep-17 17:30 072 0 gusting 5 19.4
2020-Sep-17 17:15 164 0 gusting 3 19.4
2020-Sep-17 17:00 211 1 gusting 4 25.0
2020-Sep-17 16:45 205 2 gusting 6 25.0
2020-Sep-17 16:30 162 5 gusting 9 25.6
2020-Sep-17 16:15 197 4 gusting 8 25.6
2020-Sep-17 16:00 219 5 gusting 12 25.6
2020-Sep-17 15:45 197 3 gusting 9 25.6
2020-Sep-17 15:30 196 2 gusting 7 25.0
2020-Sep-17 15:15 190 3 gusting 7 25.0
2020-Sep-17 15:00 221 4 gusting 7 24.4
2020-Sep-17 14:45 201 4 gusting 11 25.0
2020-Sep-17 14:30 218 6 gusting 12 24.4
2020-Sep-17 14:15 216 6 gusting 10 25.0
2020-Sep-17 14:00 216 5 gusting 12 24.4
2020-Sep-17 13:45 190 4 gusting 11 24.4
2020-Sep-17 13:30 175 3 gusting 9 24.4
2020-Sep-17 13:15 211 5 gusting 11 23.9
2020-Sep-17 13:00 188 5 gusting 12 23.9
2020-Sep-17 12:45 179 4 gusting 11 23.3
2020-Sep-17 12:30 160 5 gusting 11 23.3
2020-Sep-17 12:15 159 6 gusting 11 22.8
2020-Sep-17 12:00 134 6 gusting 14 22.8
2020-Sep-17 11:45 136 6 gusting 13 22.2
2020-Sep-17 11:30 154 5 gusting 9 21.7
2020-Sep-17 11:15 162 4 gusting 11 21.1
2020-Sep-17 11:00 147 5 gusting 7 20.6
2020-Sep-17 10:45 139 8 gusting 15 20.6
2020-Sep-17 10:30 173 6 gusting 13 21.1
2020-Sep-17 10:15 154 5 gusting 12 21.7
2020-Sep-17 10:00 167 5 gusting 12 22.2
2020-Sep-17 09:45 161 6 gusting 12 22.2
2020-Sep-17 09:30 194 6 gusting 11 21.7
2020-Sep-17 09:15 189 5 gusting 13 21.7
2020-Sep-17 09:00 184 4 gusting 7 21.7